createdAt,value
2022-10-11T00:02:31.920Z,8.15
2022-10-11T00:05:04.012Z,10.03
2022-10-11T00:07:31.441Z,8.63
2022-10-11T00:09:59.083Z,8.35
2022-10-11T00:12:30.881Z,8.32
2022-10-11T00:15:01.155Z,8.98
2022-10-11T00:17:28.839Z,8.63
2022-10-11T00:19:56.212Z,8.38
2022-10-11T00:22:26.467Z,8.93
2022-10-11T00:24:53.809Z,8.85
2022-10-11T00:27:23.719Z,9.55
2022-10-11T00:29:57.101Z,8.77
2022-10-11T00:32:32.770Z,7.95
2022-10-11T00:35:05.391Z,8.10
2022-10-11T00:37:36.827Z,9.13
2022-10-11T00:40:10.690Z,8.63
2022-10-11T00:42:42.531Z,8.77
2022-10-11T00:45:28.324Z,8.68
2022-10-11T00:47:59.746Z,8.55
2022-10-11T00:50:38.058Z,8.00
2022-10-11T00:53:11.516Z,8.38
2022-10-11T00:56:00.389Z,8.95
2022-10-11T00:58:33.741Z,8.10
2022-10-11T01:01:01.379Z,8.43
2022-10-11T01:03:30.666Z,8.63
2022-10-11T01:05:57.933Z,8.27
2022-10-11T01:08:25.813Z,8.77
2022-10-11T01:10:53.403Z,8.60
2022-10-11T01:13:50.515Z,7.03
2022-10-11T01:16:29.176Z,6.97
2022-10-11T01:19:34.556Z,7.82
2022-10-11T01:22:30.815Z,7.15
2022-10-11T01:25:04.140Z,7.45
2022-10-11T01:27:49.359Z,6.75
2022-10-11T01:30:29.219Z,7.65
2022-10-11T01:33:46.459Z,7.32
2022-10-11T01:36:45.336Z,6.55
2022-10-11T01:39:21.352Z,7.93
2022-10-11T01:41:55.892Z,6.82
2022-10-11T01:44:28.513Z,7.05
2022-10-11T01:46:58.527Z,7.10
2022-10-11T01:49:25.873Z,6.55
2022-10-11T01:52:00.055Z,6.82
2022-10-11T01:55:09.130Z,8.13
2022-10-11T01:58:19.335Z,7.10
2022-10-11T02:01:10.874Z,6.97
2022-10-11T02:04:06.243Z,7.63
2022-10-11T02:06:52.655Z,6.10
2022-10-11T02:09:36.228Z,6.60
2022-10-11T02:12:18.885Z,7.25
2022-10-11T02:14:54.642Z,7.07
2022-10-11T02:20:26.596Z,7.05
2022-10-11T02:23:17.808Z,6.82
2022-10-11T02:25:49.462Z,6.85
2022-10-11T02:28:25.817Z,6.43
2022-10-11T02:30:55.492Z,7.20
2022-10-11T02:33:46.973Z,7.20
2022-10-11T02:36:27.074Z,6.32
2022-10-11T02:38:59.995Z,7.53
2022-10-11T02:41:42.209Z,7.53
2022-10-11T02:44:20.995Z,6.80
2022-10-11T02:46:50.247Z,7.25
2022-10-11T02:49:26.130Z,8.20
2022-10-11T02:51:59.173Z,7.65
2022-10-11T02:54:36.457Z,7.25
2022-10-11T02:57:06.707Z,7.40
2022-10-11T02:59:39.361Z,7.10
2022-10-11T03:02:08.969Z,6.88
2022-10-11T03:04:39.274Z,7.28
2022-10-11T03:07:08.482Z,7.07
2022-10-11T03:09:38.217Z,6.57
2022-10-11T03:12:08.303Z,6.57
2022-10-11T03:14:42.824Z,6.95
2022-10-11T03:17:35.505Z,6.38
2022-10-11T03:20:08.705Z,7.15
2022-10-11T03:22:41.763Z,6.95
2022-10-11T03:25:12.898Z,6.68
2022-10-11T03:27:42.334Z,6.80
2022-10-11T03:30:17.876Z,6.30
2022-10-11T03:35:29.577Z,6.75
2022-10-11T03:38:01.457Z,6.80
2022-10-11T03:40:31.638Z,6.20
2022-10-11T03:43:02.491Z,5.72
2022-10-11T03:45:29.946Z,6.55
2022-10-11T03:48:02.511Z,5.82
2022-10-11T03:50:33.239Z,6.82
2022-10-11T03:53:00.806Z,6.57
2022-10-11T03:55:30.302Z,6.65
2022-10-11T03:58:01.038Z,6.70
2022-10-11T04:00:31.406Z,6.68
2022-10-11T04:03:08.122Z,6.10
2022-10-11T04:05:38.123Z,6.35
2022-10-11T04:08:12.271Z,6.20
2022-10-11T04:10:48.309Z,6.15
2022-10-11T04:13:16.352Z,5.88
2022-10-11T04:15:43.505Z,6.15
2022-10-11T04:18:21.508Z,6.28
2022-10-11T04:20:51.836Z,6.03
2022-10-11T04:23:19.743Z,6.80
2022-10-11T04:25:57.169Z,6.70
2022-10-11T04:28:27.503Z,5.80
2022-10-11T04:31:00.091Z,7.18
2022-10-11T04:33:37.144Z,6.03
2022-10-11T04:36:07.354Z,6.03
2022-10-11T04:38:34.932Z,5.75
2022-10-11T04:41:13.663Z,6.50
2022-10-11T04:43:43.651Z,6.32
2022-10-11T04:46:11.763Z,5.90
2022-10-11T04:48:39.405Z,6.45
2022-10-11T04:51:11.280Z,6.57
2022-10-11T04:53:45.010Z,5.95
2022-10-11T04:56:30.154Z,5.33
2022-10-11T04:59:03.927Z,5.50
2022-10-11T05:01:31.890Z,6.65
2022-10-11T05:04:02.297Z,6.45
2022-10-11T05:06:31.847Z,6.57
2022-10-11T05:09:04.495Z,5.90
2022-10-11T05:11:34.147Z,6.57
2022-10-11T05:14:08.003Z,5.88
2022-10-11T05:16:46.139Z,5.85
2022-10-11T05:19:13.475Z,5.57
2022-10-11T05:21:43.281Z,6.40
2022-10-11T05:24:17.723Z,6.28
2022-10-11T05:26:50.376Z,6.78
2022-10-11T05:29:27.863Z,6.60
2022-10-11T05:32:05.383Z,5.93
2022-10-11T05:34:35.148Z,6.47
2022-10-11T05:37:06.724Z,8.05
2022-10-11T05:39:44.401Z,6.18
2022-10-11T05:42:22.207Z,6.47
2022-10-11T05:44:52.354Z,6.50
2022-10-11T05:47:21.317Z,6.63
2022-10-11T05:49:48.312Z,6.78
2022-10-11T05:52:20.130Z,6.32
2022-10-11T05:54:48.338Z,6.22
2022-10-11T05:57:15.856Z,5.82
2022-10-11T05:59:46.216Z,6.97
2022-10-11T06:02:16.811Z,6.50
2022-10-11T06:04:52.456Z,6.05
2022-10-11T06:07:20.068Z,5.90
2022-10-11T06:09:54.047Z,6.20
2022-10-11T06:12:24.455Z,5.93
2022-10-11T06:14:51.922Z,5.95
2022-10-11T06:17:24.131Z,6.90
2022-10-11T06:19:55.097Z,6.30
2022-10-11T06:22:25.198Z,6.05
2022-10-11T06:24:57.561Z,5.20
2022-10-11T06:27:27.057Z,6.13
2022-10-11T06:29:54.479Z,5.60
2022-10-11T06:32:28.036Z,5.28
2022-10-11T06:35:04.882Z,5.78
2022-10-11T06:37:32.220Z,5.50
2022-10-11T06:40:05.381Z,5.45
2022-10-11T06:42:43.564Z,6.32
2022-10-11T06:45:11.138Z,5.65
2022-10-11T06:47:38.728Z,6.47
2022-10-11T06:50:09.031Z,4.97
2022-10-11T06:52:40.440Z,5.40
2022-10-11T06:55:08.308Z,5.25
2022-10-11T06:57:39.596Z,6.13
2022-10-11T07:00:11.744Z,5.53
2022-10-11T07:02:40.160Z,5.75
2022-10-11T07:05:08.660Z,6.38
2022-10-11T07:07:36.289Z,5.60
2022-10-11T07:10:03.550Z,6.05
2022-10-11T07:12:30.978Z,5.78
2022-10-11T07:14:58.135Z,6.35
2022-10-11T07:17:28.320Z,6.18
2022-10-11T07:19:58.580Z,6.40
2022-10-11T07:22:30.537Z,6.25
2022-10-11T07:25:05.975Z,6.38
2022-10-11T07:27:38.171Z,6.05
2022-10-11T07:30:11.302Z,6.47
2022-10-11T07:35:13.236Z,6.85
2022-10-11T07:37:44.492Z,6.53
2022-10-11T07:40:22.949Z,5.85
2022-10-11T07:42:50.433Z,7.30
2022-10-11T07:45:21.023Z,6.10
2022-10-11T07:47:58.810Z,6.03
2022-10-11T07:50:27.137Z,6.80
2022-10-11T07:52:54.751Z,5.55
2022-10-11T07:55:30.578Z,5.47
2022-10-11T07:57:58.648Z,6.32
2022-10-11T08:00:31.331Z,5.88
2022-10-11T08:02:59.096Z,5.73
2022-10-11T08:05:30.442Z,5.82
2022-10-11T08:07:58.721Z,6.07
2022-10-11T08:10:29.064Z,5.85
2022-10-11T08:13:05.825Z,5.88
2022-10-11T08:15:36.607Z,6.10
2022-10-11T08:18:06.809Z,5.75
2022-10-11T08:20:34.657Z,6.50
2022-10-11T08:23:02.218Z,5.32
2022-10-11T08:25:29.660Z,6.43
2022-10-11T08:27:57.126Z,8.38
2022-10-11T08:30:25.197Z,6.28
2022-10-11T08:32:55.384Z,5.57
2022-10-11T08:35:28.277Z,5.50
2022-10-11T08:37:56.073Z,5.93
2022-10-11T08:40:35.357Z,5.35
2022-10-11T08:43:22.823Z,5.65
2022-10-11T08:46:01.992Z,5.15
2022-10-11T08:48:48.866Z,5.70
2022-10-11T08:51:30.858Z,5.32
2022-10-11T08:54:21.607Z,6.05
2022-10-11T08:56:54.227Z,5.30
2022-10-11T09:00:00.455Z,6.50
2022-10-11T09:03:08.680Z,5.30
2022-10-11T09:05:56.897Z,6.03
2022-10-11T09:08:42.365Z,5.70
2022-10-11T09:11:16.627Z,5.70
2022-10-11T09:14:07.729Z,6.45
2022-10-11T09:17:19.404Z,7.00
2022-10-11T09:20:20.547Z,7.50
2022-10-11T09:23:09.372Z,6.63
2022-10-11T09:26:07.003Z,7.95
2022-10-11T09:28:58.704Z,7.22
2022-10-11T09:32:14.292Z,6.93
2022-10-11T09:34:45.549Z,6.22
2022-10-11T09:37:35.931Z,6.50
2022-10-11T09:40:57.595Z,6.53
2022-10-11T09:43:43.364Z,6.47
2022-10-11T09:46:26.444Z,7.35
2022-10-11T09:48:59.329Z,8.35
2022-10-11T09:51:34.196Z,7.40
2022-10-11T09:57:22.966Z,6.90
2022-10-11T10:00:34.553Z,4.85
2022-10-11T10:03:08.412Z,5.50
2022-10-11T10:05:48.872Z,5.97
2022-10-11T10:08:23.850Z,5.90
2022-10-11T10:10:59.986Z,6.43
2022-10-11T10:13:50.210Z,4.90
2022-10-11T10:16:27.216Z,3.40
2022-10-11T10:19:06.135Z,4.47
2022-10-11T10:21:47.812Z,3.83
2022-10-11T10:24:37.573Z,3.55
2022-10-11T10:27:30.557Z,4.55
2022-10-11T10:30:19.583Z,4.53
2022-10-11T10:33:17.777Z,4.75
2022-10-11T10:39:34.303Z,3.83
2022-10-11T10:42:26.290Z,3.88
2022-10-11T10:45:03.029Z,3.63
2022-10-11T10:48:02.437Z,5.30
2022-10-11T10:51:14.043Z,4.60
2022-10-11T10:54:11.014Z,4.50
2022-10-11T11:00:22.193Z,5.40
2022-10-11T11:03:13.573Z,3.97
2022-10-11T11:06:07.618Z,4.25
2022-10-11T11:12:49.080Z,3.50
2022-10-11T11:15:44.302Z,3.47
2022-10-11T11:18:26.087Z,2.72
2022-10-11T11:21:22.983Z,3.10
2022-10-11T11:24:20.243Z,3.15
2022-10-11T11:27:26.498Z,3.20
2022-10-11T11:30:20.307Z,4.13
2022-10-11T11:33:17.458Z,3.08
2022-10-11T11:36:08.297Z,4.35
2022-10-11T11:39:13.887Z,3.67
2022-10-11T11:42:13.813Z,3.17
2022-10-11T11:44:50.641Z,4.35
2022-10-11T11:47:55.184Z,4.10
2022-10-11T11:50:33.756Z,4.63
2022-10-11T11:53:18.690Z,2.88
2022-10-11T11:56:04.846Z,3.92
2022-10-11T11:59:06.751Z,3.05
2022-10-11T12:02:22.564Z,3.80
2022-10-11T12:04:58.966Z,3.22
2022-10-11T12:08:10.603Z,3.15
2022-10-11T12:10:50.087Z,3.33
2022-10-11T12:13:32.585Z,3.17
2022-10-11T12:16:09.984Z,2.90
2022-10-11T12:19:08.518Z,4.18
2022-10-11T12:21:42.434Z,3.13
2022-10-11T12:25:05.475Z,3.03
2022-10-11T12:27:53.582Z,4.03
2022-10-11T12:30:48.432Z,3.53
2022-10-11T12:33:46.759Z,3.55
2022-10-11T12:40:30.121Z,4.03
2022-10-11T12:43:30.320Z,3.28
2022-10-11T12:46:39.624Z,4.13
2022-10-11T12:49:34.210Z,3.45
2022-10-11T12:55:21.669Z,4.40
2022-10-11T12:58:11.476Z,4.32
2022-10-11T13:01:28.291Z,5.25
2022-10-11T13:04:39.651Z,4.20
2022-10-11T13:07:26.150Z,4.28
2022-10-11T13:09:58.128Z,4.40
2022-10-11T13:12:40.012Z,3.45
2022-10-11T13:15:15.326Z,4.68
2022-10-11T13:17:44.653Z,4.25
2022-10-11T13:20:28.327Z,4.68
2022-10-11T13:23:04.884Z,3.25
2022-10-11T13:25:41.454Z,3.42
2022-10-11T13:28:13.309Z,4.22
2022-10-11T13:30:52.567Z,4.60
2022-10-11T13:33:38.108Z,4.03
2022-10-11T13:36:09.894Z,4.75
2022-10-11T13:38:38.323Z,5.15
2022-10-11T13:41:14.102Z,4.20
2022-10-11T13:43:41.792Z,4.22
2022-10-11T13:46:29.135Z,4.47
2022-10-11T13:49:06.988Z,3.67
2022-10-11T13:51:37.566Z,4.25
2022-10-11T13:54:13.631Z,3.40
2022-10-11T13:56:51.072Z,3.80
2022-10-11T13:59:23.231Z,4.45
2022-10-11T14:02:02.146Z,4.32
2022-10-11T14:04:41.111Z,3.33
2022-10-11T14:07:33.838Z,3.30
2022-10-11T14:10:18.684Z,4.00
2022-10-11T14:13:04.591Z,4.15
2022-10-11T14:15:41.040Z,3.20
2022-10-11T14:18:34.027Z,3.53
2022-10-11T14:21:27.793Z,3.43
2022-10-11T14:24:11.410Z,3.42
2022-10-11T14:26:43.206Z,3.40
2022-10-11T14:29:38.491Z,3.33
2022-10-11T14:32:24.822Z,3.63
2022-10-11T14:34:53.644Z,3.67
2022-10-11T14:37:29.364Z,4.00
2022-10-11T14:39:56.599Z,4.00
2022-10-11T14:42:23.777Z,3.30
2022-10-11T14:44:54.787Z,3.00
2022-10-11T14:47:25.911Z,3.65
2022-10-11T14:49:56.109Z,3.58
2022-10-11T14:52:23.455Z,3.40
2022-10-11T14:54:53.088Z,3.30
2022-10-11T14:57:24.073Z,3.40
2022-10-11T14:59:51.502Z,3.78
2022-10-11T15:02:18.822Z,4.05
2022-10-11T15:04:48.402Z,4.53
2022-10-11T15:07:15.541Z,3.60
2022-10-11T15:09:45.647Z,4.00
2022-10-11T15:12:12.885Z,3.35
2022-10-11T15:14:40.241Z,3.42
2022-10-11T15:17:10.269Z,4.05
2022-10-11T15:19:42.843Z,3.78
2022-10-11T15:22:10.292Z,4.03
2022-10-11T15:24:40.727Z,3.60
2022-10-11T15:27:11.046Z,3.60
2022-10-11T15:29:40.977Z,3.95
2022-10-11T15:32:10.774Z,4.03
2022-10-11T15:34:40.481Z,3.80
2022-10-11T15:37:17.033Z,3.88
2022-10-11T15:39:44.903Z,4.20
2022-10-11T15:42:12.503Z,4.40
2022-10-11T15:44:42.881Z,4.00
2022-10-11T15:47:14.629Z,3.60
2022-10-11T15:49:47.345Z,4.53
2022-10-11T15:52:14.517Z,4.60
2022-10-11T15:54:43.994Z,4.30
2022-10-11T15:57:13.908Z,4.20
2022-10-11T15:59:47.465Z,4.82
2022-10-11T16:02:15.213Z,4.30
2022-10-11T16:04:45.291Z,4.45
2022-10-11T16:07:13.554Z,3.97
2022-10-11T16:09:50.114Z,4.68
2022-10-11T16:12:22.751Z,4.45
2022-10-11T16:14:50.296Z,4.60
2022-10-11T16:17:17.504Z,4.38
2022-10-11T16:19:48.068Z,4.75
2022-10-11T16:22:16.118Z,4.50
2022-10-11T16:24:45.167Z,4.18
2022-10-11T16:27:16.529Z,4.13
2022-10-11T16:29:48.733Z,4.72
2022-10-11T16:32:19.377Z,4.00
2022-10-11T16:34:49.063Z,4.55
2022-10-11T16:37:19.355Z,4.28
2022-10-11T16:39:49.049Z,4.30
2022-10-11T16:42:16.601Z,4.63
2022-10-11T16:44:44.135Z,4.30
2022-10-11T16:47:11.705Z,4.55
2022-10-11T16:49:41.135Z,4.07
2022-10-11T16:52:11.074Z,4.28
2022-10-11T16:54:39.690Z,5.10
2022-10-11T16:57:20.047Z,5.07
2022-10-11T16:59:50.437Z,4.47
2022-10-11T17:02:29.937Z,5.13
2022-10-11T17:05:02.300Z,5.07
2022-10-11T17:07:34.580Z,4.85
2022-10-11T17:10:08.811Z,5.45
2022-10-11T17:12:50.328Z,5.75
2022-10-11T17:15:31.656Z,5.28
2022-10-11T17:18:03.290Z,5.85
2022-10-11T17:20:34.556Z,6.25
2022-10-11T17:23:03.945Z,6.22
2022-10-11T17:25:54.907Z,6.80
2022-10-11T17:28:24.308Z,6.65
2022-10-11T17:31:09.851Z,5.55
2022-10-11T17:33:38.908Z,6.03
2022-10-11T17:36:22.824Z,6.65
2022-10-11T17:39:03.316Z,6.75
2022-10-11T17:41:45.479Z,6.65
2022-10-11T17:44:30.327Z,5.93
2022-10-11T17:47:09.358Z,6.35
2022-10-11T17:50:14.659Z,6.25
2022-10-11T17:53:07.029Z,6.30
2022-10-11T17:55:49.288Z,7.72
2022-10-11T17:58:59.792Z,7.00
2022-10-11T18:01:41.351Z,6.22
2022-10-11T18:04:20.909Z,6.88
2022-10-11T18:07:08.451Z,6.80
2022-10-11T18:09:53.725Z,7.63
2022-10-11T18:12:34.137Z,7.43
2022-10-11T18:15:08.456Z,8.38
2022-10-11T18:17:44.209Z,8.63
2022-10-11T18:26:54.257Z,8.73
2022-10-11T18:29:29.880Z,7.05
2022-10-11T18:32:06.447Z,6.55
2022-10-11T18:34:50.525Z,7.32
2022-10-11T18:37:45.593Z,8.23
2022-10-11T18:40:32.353Z,7.45
2022-10-11T18:43:19.841Z,7.35
2022-10-11T18:46:03.368Z,7.30
2022-10-11T18:48:39.578Z,7.15
2022-10-11T18:51:31.753Z,9.43
2022-10-11T18:54:18.557Z,6.90
2022-10-11T18:57:17.329Z,7.05
2022-10-11T18:59:55.571Z,6.80
2022-10-11T19:02:31.828Z,7.63
2022-10-11T19:05:24.088Z,6.25
2022-10-11T19:08:13.156Z,7.22
2022-10-11T19:11:13.333Z,8.18
2022-10-11T19:14:02.623Z,6.55
2022-10-11T19:16:54.019Z,8.82
2022-10-11T19:19:45.169Z,10.00
2022-10-11T19:22:32.408Z,6.93
2022-10-11T19:25:31.435Z,6.78
2022-10-11T19:28:27.044Z,6.85
2022-10-11T19:31:31.252Z,7.75
2022-10-11T19:34:11.660Z,8.17
2022-10-11T19:36:56.661Z,7.85
2022-10-11T19:39:45.118Z,5.97
2022-10-11T19:42:34.824Z,7.00
2022-10-11T19:45:35.143Z,8.10
2022-10-11T19:48:36.621Z,6.95
2022-10-11T19:51:25.505Z,7.13
2022-10-11T19:54:08.224Z,7.53
2022-10-11T19:57:06.405Z,7.65
2022-10-11T19:59:51.380Z,6.50
2022-10-11T20:02:23.138Z,7.55
2022-10-11T20:05:01.381Z,6.38
2022-10-11T20:07:54.417Z,6.38
2022-10-11T20:10:34.983Z,6.72
2022-10-11T20:13:11.795Z,7.18
2022-10-11T20:16:21.857Z,7.57
2022-10-11T20:19:13.749Z,7.57
2022-10-11T20:21:48.116Z,8.23
2022-10-11T20:24:33.821Z,8.93
2022-10-11T20:30:54.463Z,8.02
2022-10-11T20:33:47.222Z,7.82
2022-10-11T20:36:33.246Z,7.18
2022-10-11T20:39:26.068Z,7.72
2022-10-11T20:42:14.688Z,8.20
2022-10-11T20:44:59.167Z,7.45
2022-10-11T20:47:43.149Z,7.22
2022-10-11T20:50:23.271Z,6.60
2022-10-11T20:53:02.049Z,7.10
2022-10-11T20:55:47.972Z,7.45
2022-10-11T20:58:31.732Z,7.20
2022-10-11T21:04:18.902Z,7.13
2022-10-11T21:07:07.267Z,7.35
2022-10-11T21:09:49.982Z,7.00
2022-10-11T21:12:26.309Z,8.30
2022-10-11T21:14:57.619Z,7.93
2022-10-11T21:17:38.681Z,8.23
2022-10-11T21:20:48.374Z,8.00
2022-10-11T21:23:22.281Z,8.18
2022-10-11T21:26:10.471Z,8.43
2022-10-11T21:28:39.072Z,8.27
2022-10-11T21:31:32.740Z,8.25
2022-10-11T21:34:07.891Z,8.18
2022-10-11T21:36:35.476Z,8.80
2022-10-11T21:39:12.020Z,8.32
2022-10-11T21:41:42.684Z,7.72
2022-10-11T21:44:13.022Z,8.18
2022-10-11T21:47:06.610Z,8.55
2022-10-11T21:49:29.581Z,8.80
2022-10-11T21:52:02.528Z,8.75
2022-10-11T21:54:34.499Z,9.45
2022-10-11T21:57:13.083Z,8.85
2022-10-11T21:59:44.633Z,7.82
2022-10-11T22:02:14.892Z,8.48
2022-10-11T22:04:47.359Z,8.73
2022-10-11T22:07:14.716Z,9.13
2022-10-11T22:09:46.830Z,9.13
2022-10-11T22:12:16.552Z,8.57
2022-10-11T22:14:46.625Z,9.43
2022-10-11T22:17:19.903Z,8.50
2022-10-11T22:19:55.310Z,9.18
2022-10-11T22:22:28.102Z,9.75
2022-10-11T22:25:00.984Z,9.40
2022-10-11T22:27:31.880Z,10.43
2022-10-11T22:30:02.348Z,10.50
2022-10-11T22:32:29.598Z,10.00
2022-10-11T22:34:56.713Z,9.35
2022-10-11T22:37:24.048Z,9.07
2022-10-11T22:39:57.240Z,9.88
2022-10-11T22:42:29.108Z,8.88
2022-10-11T22:45:12.134Z,9.77
2022-10-11T22:47:41.844Z,9.68
2022-10-11T22:50:12.193Z,9.75
2022-10-11T22:52:42.145Z,9.50
2022-10-11T22:55:16.251Z,10.70
2022-10-11T22:57:50.252Z,10.70
2022-10-11T23:00:21.538Z,9.45
2022-10-11T23:02:52.622Z,10.23
2022-10-11T23:05:33.536Z,10.18
2022-10-11T23:08:03.957Z,8.95
2022-10-11T23:10:33.646Z,10.27
2022-10-11T23:13:03.436Z,10.63
2022-10-11T23:15:33.960Z,10.15
2022-10-11T23:18:01.484Z,10.65
2022-10-11T23:20:33.619Z,10.23
2022-10-11T23:23:04.248Z,9.52
2022-10-11T23:25:38.561Z,10.35
2022-10-11T23:28:11.113Z,9.98
2022-10-11T23:30:41.260Z,9.50
2022-10-11T23:33:18.154Z,10.40
2022-10-11T23:35:51.193Z,9.68
2022-10-11T23:38:21.050Z,9.00
2022-10-11T23:40:48.664Z,9.50
2022-10-11T23:43:18.098Z,9.68
2022-10-11T23:45:45.398Z,9.55
2022-10-11T23:48:12.715Z,10.40
2022-10-11T23:50:43.179Z,10.48
2022-10-11T23:53:13.343Z,9.57
2022-10-11T23:55:43.767Z,9.75
2022-10-11T23:58:16.634Z,9.05
